createdAt,value
2022-11-24T04:10:36.617Z,4.38
2022-11-24T04:13:03.995Z,5.68
2022-11-24T04:15:30.509Z,4.78
2022-11-24T04:17:57.239Z,5.15
2022-11-24T04:20:24.259Z,4.63
2022-11-24T04:22:54.184Z,4.57
2022-11-24T04:25:20.671Z,6.57
2022-11-24T04:27:51.047Z,5.85
2022-11-24T04:30:17.680Z,5.38
2022-11-24T04:32:46.837Z,6.55
2022-11-24T04:35:20.555Z,6.53
2022-11-24T04:37:47.677Z,6.50
2022-11-24T04:42:55.536Z,6.68
2022-11-24T04:45:22.683Z,6.93
2022-11-24T04:47:52.321Z,6.53
2022-11-24T04:50:26.197Z,7.00
2022-11-24T04:52:53.132Z,6.13
2022-11-24T04:55:19.969Z,8.23
2022-11-24T04:57:46.500Z,9.07
2022-11-24T05:00:13.364Z,9.48
2022-11-24T05:02:40.029Z,10.50
2022-11-24T05:05:07.251Z,10.13
2022-11-24T05:07:36.344Z,10.25
2022-11-24T05:10:21.576Z,10.77
2022-11-24T05:12:56.295Z,10.68
2022-11-24T05:15:26.050Z,9.80
2022-11-24T05:17:52.661Z,10.32
2022-11-24T05:20:24.534Z,10.90
2022-11-24T05:22:52.966Z,10.57
2022-11-24T05:25:22.369Z,10.35
2022-11-24T05:27:51.774Z,10.38
2022-11-24T05:30:18.280Z,11.45
2022-11-24T05:32:44.769Z,11.00
2022-11-24T05:35:11.404Z,11.10
2022-11-24T05:37:45.759Z,10.93
2022-11-24T05:40:12.370Z,10.52
2022-11-24T05:42:46.559Z,10.13
2022-11-24T15:53:24.536Z,11.40
2022-11-24T15:55:51.937Z,12.77
2022-11-24T15:58:18.843Z,14.02
2022-11-24T16:00:45.612Z,14.60
2022-11-24T16:03:45.225Z,9.95
2022-11-24T16:06:05.579Z,13.70
2022-11-24T16:08:32.332Z,14.80
2022-11-24T16:11:00.055Z,11.90
2022-11-24T16:13:26.632Z,14.80
2022-11-24T16:15:58.813Z,15.63
2022-11-24T16:18:25.428Z,14.50
2022-11-24T16:20:51.925Z,15.40
2022-11-24T16:23:19.379Z,9.68
2022-11-24T16:25:45.872Z,13.70
2022-11-24T16:28:12.462Z,9.43
2022-11-24T16:30:41.748Z,13.15
2022-11-24T16:33:08.268Z,13.18
2022-11-24T16:35:34.774Z,11.90
2022-11-24T16:38:01.276Z,13.45
2022-11-24T16:40:28.702Z,9.55
2022-11-24T16:42:56.344Z,12.30
2022-11-24T16:45:22.941Z,12.15
2022-11-24T16:47:49.389Z,13.10
2022-11-24T16:50:15.920Z,11.15
2022-11-24T16:52:45.242Z,11.93
2022-11-24T16:55:24.031Z,12.43
2022-11-24T16:57:50.584Z,12.13
2022-11-24T17:00:20.287Z,12.55
2022-11-24T17:02:49.580Z,11.55
2022-11-24T17:05:18.558Z,10.18
2022-11-24T17:07:45.220Z,9.80
2022-11-24T17:10:11.742Z,12.13
2022-11-24T17:12:38.277Z,10.80
2022-11-24T17:18:22.515Z,13.05
2022-11-24T17:20:38.362Z,13.60
2022-11-24T17:23:04.808Z,13.07
2022-11-24T17:25:32.074Z,13.23
2022-11-24T17:27:58.586Z,13.70
2022-11-24T17:30:25.117Z,13.52
2022-11-24T17:32:56.581Z,12.85
2022-11-24T17:35:26.213Z,13.40
2022-11-24T17:37:52.700Z,13.40
2022-11-24T17:40:34.553Z,13.88
2022-11-24T17:43:01.397Z,14.85
2022-11-24T17:45:28.451Z,11.68
2022-11-24T17:47:55.200Z,13.82
2022-11-24T17:50:25.681Z,15.20
2022-11-24T17:52:53.222Z,14.83
2022-11-24T17:55:22.006Z,13.40
2022-11-24T17:57:48.497Z,14.48
2022-11-24T18:00:15.274Z,13.82
2022-11-24T18:02:41.845Z,14.15
2022-11-24T18:05:08.633Z,12.02
2022-11-24T18:07:36.664Z,14.55
2022-11-24T18:10:03.968Z,11.30
2022-11-24T18:12:30.499Z,14.40
2022-11-24T18:14:56.965Z,14.25
2022-11-24T18:17:23.449Z,14.55
2022-11-24T18:19:49.947Z,14.48
2022-11-24T18:22:16.561Z,14.73
2022-11-24T18:24:43.049Z,14.82
2022-11-24T18:27:09.500Z,15.52
2022-11-24T18:29:36.006Z,15.85
2022-11-24T18:32:02.554Z,14.98
2022-11-24T18:34:29.088Z,14.02
2022-11-24T18:36:55.658Z,15.60
2022-11-24T18:39:22.254Z,15.68
2022-11-24T18:41:48.728Z,16.25
2022-11-24T18:44:15.252Z,13.43
2022-11-24T18:46:41.809Z,13.90
2022-11-24T18:49:08.340Z,13.93
2022-11-24T18:51:34.804Z,14.93
2022-11-24T18:54:03.084Z,14.73
2022-11-24T18:56:29.636Z,13.75
2022-11-24T18:58:56.511Z,11.52
2022-11-24T19:01:24.857Z,15.20
2022-11-24T19:03:52.973Z,14.98
2022-11-24T19:06:20.763Z,17.23
2022-11-24T19:08:47.523Z,16.08
2022-11-24T19:11:24.366Z,14.88
2022-11-24T19:13:51.077Z,14.55
2022-11-24T19:16:18.227Z,12.93
2022-11-24T19:18:53.585Z,15.00
2022-11-24T19:21:21.040Z,15.20
2022-11-24T19:23:50.313Z,15.68
2022-11-24T19:26:19.775Z,15.00
2022-11-24T19:28:46.317Z,13.48
2022-11-24T19:31:13.645Z,17.83
2022-11-24T19:33:40.756Z,16.83
2022-11-24T19:36:09.083Z,15.70
2022-11-24T19:38:35.692Z,13.10
2022-11-24T19:41:09.800Z,15.80
2022-11-24T19:43:36.479Z,14.95
2022-11-24T19:46:10.858Z,14.23
2022-11-24T19:48:38.552Z,12.45
2022-11-24T19:51:06.316Z,14.50
2022-11-24T19:53:33.348Z,13.05
2022-11-24T19:56:04.496Z,14.68
2022-11-24T19:58:30.923Z,14.27
2022-11-24T20:01:04.913Z,13.43
2022-11-24T20:03:31.420Z,14.23
2022-11-24T20:05:57.920Z,14.70
2022-11-24T20:08:24.424Z,13.60
2022-11-24T20:10:50.937Z,13.85
2022-11-24T20:13:17.411Z,14.93
2022-11-24T20:15:46.320Z,14.80
2022-11-24T20:18:13.069Z,14.65
2022-11-24T20:20:39.544Z,15.20
2022-11-24T20:23:06.260Z,15.52
2022-11-24T20:25:36.138Z,15.70
2022-11-24T20:28:02.652Z,14.73
2022-11-24T20:30:29.177Z,13.65
2022-11-24T20:32:58.655Z,10.98
2022-11-24T20:35:27.694Z,15.15
2022-11-24T20:38:03.754Z,12.43
2022-11-24T20:40:30.249Z,14.20
2022-11-24T20:42:56.704Z,13.75
2022-11-24T20:45:23.311Z,14.48
2022-11-24T20:47:49.792Z,13.43
2022-11-24T20:50:16.290Z,13.73
2022-11-24T20:52:42.917Z,11.65
2022-11-24T20:55:09.528Z,13.00
2022-11-24T20:57:35.943Z,14.43
2022-11-24T21:00:02.722Z,14.30
2022-11-24T21:02:29.390Z,14.20
2022-11-24T21:05:02.080Z,13.65
2022-11-24T21:07:31.749Z,13.75
2022-11-24T21:10:02.005Z,13.95
2022-11-24T21:12:29.405Z,13.77
2022-11-24T21:14:56.759Z,13.65
2022-11-24T21:17:23.401Z,13.77
2022-11-24T21:20:05.013Z,12.98
2022-11-24T21:22:31.496Z,13.45
2022-11-24T21:24:57.977Z,12.52
2022-11-24T21:27:24.689Z,12.75
2022-11-24T21:29:52.091Z,12.77
2022-11-24T21:32:21.349Z,12.65
2022-11-24T21:34:47.855Z,13.50
2022-11-24T21:37:24.961Z,13.23
2022-11-24T21:39:51.524Z,12.70
2022-11-24T21:42:20.300Z,12.60
2022-11-24T21:44:52.705Z,11.77
2022-11-24T21:47:25.210Z,14.38
2022-11-24T21:49:51.680Z,10.95
2022-11-24T21:52:21.604Z,13.45
2022-11-24T21:54:48.051Z,11.43
2022-11-24T21:57:14.500Z,11.90
2022-11-24T21:59:41.012Z,12.13
2022-11-24T22:02:13.039Z,11.85
2022-11-24T22:04:39.890Z,11.13
2022-11-24T22:07:06.395Z,11.18
2022-11-24T22:09:33.968Z,11.05
2022-11-24T22:12:00.476Z,11.63
2022-11-24T22:14:27.075Z,10.48
2022-11-24T22:16:53.576Z,10.05
2022-11-24T22:19:20.122Z,10.93
